This is the latest recevied weather packets stored in our database for station/object VA7NEZ. If no packets are shown the sender has not sent any weather packets the latest 10 day(s).
| Time | Temp. | Humidity | Pressure | Rain* | Wind** | Luminosity | Snow |
|---|---|---|---|---|---|---|---|
| 1778308227 | 13.89° C | 40% | 1018 hPa | 0 mm | - | - | - |
| 1778307731 | 13.89° C | 41% | 1018 hPa | 0 mm | - | - | - |
| 1778307171 | 13.89° C | 40% | 1017.9 hPa | 0 mm | - | - | - |
| 1778306641 | 13.33° C | 46% | 1017.8 hPa | 0 mm | - | - | - |
| 1778306066 | 13.89° C | 47% | 1017.7 hPa | 0 mm | - | - | - |
| 1778305581 | 14.44° C | 42% | 1017.7 hPa | 0 mm | - | - | - |
| 1778305072 | 14.44° C | 36% | 1017.6 hPa | 0 mm | - | - | - |
| 1778304481 | 15° C | 36% | 1017.7 hPa | 0 mm | - | - | - |
| 1778303911 | 14.44° C | 37% | 1017.4 hPa | 0 mm | - | - | - |
| 1778303376 | 15° C | 41% | 1017.4 hPa | 0 mm | - | - | - |
| 1778302876 | 15° C | 39% | 1017.3 hPa | 0 mm | - | - | - |
| 1778302352 | 15° C | 38% | 1017 hPa | 0 mm | - | - | - |
| 1778301786 | 0° C | 100% | 1017.1 hPa | 0 mm | - | - | - |
| 1778301304 | 0° C | 100% | 1017 hPa | 0 mm | - | - | - |
| 1778300802 | 0° C | 100% | 1016.7 hPa | 0 mm | - | - | - |
| 1778300221 | 15.56° C | 37% | 1016.3 hPa | 0 mm | - | - | - |
| 1778299631 | 15.56° C | 37% | 1016.3 hPa | 0 mm | - | - | - |
| 1778299136 | 16.11° C | 36% | 1016.3 hPa | 0 mm | - | - | - |
| 1778298626 | 16.11° C | 35% | 1016 hPa | 0 mm | - | - | - |
| 1778298116 | 16.67° C | 35% | 1015.8 hPa | 0 mm | - | - | - |
| 1778297557 | 16.67° C | 35% | 1015.7 hPa | 0 mm | - | - | - |
| 1778296446 | 16.67° C | 37% | 1015.1 hPa | 0 mm | - | - | - |
| 1778295951 | 17.22° C | 35% | 1014.9 hPa | 0 mm | - | - | - |
| 1778295462 | 17.22° C | 34% | 1014.9 hPa | 0 mm | - | - | - |
| 1778294928 | 17.78° C | 33% | 1014.7 hPa | 0 mm | - | - | - |
* Rain latest hour (hover to see other rain measurements)
** Current wind speed in m/s (hover to see current wind gust speed)